Time;durP1;ratioP1;P1;durP2;ratioP2;P2;SDS_P1;SDS_P2;PMS_P1;PMS_P2;Temp;Humidity;BMP_temperature;BMP_pressure;BME280_temperature;BME280_humidity;BME280_pressure;Samples;Min_cycle;Max_cycle;Signal;HPM_P1;HPM_P2
2022/12/05 00:01:58;;;;;;;;;;;;;;;6.30;62.83;101463.78;5048461;28;20377;-51
2022/12/05 00:04:23;;;;;;;;;;;;;;;6.30;61.99;101453.31;5054322;28;19920;-52
2022/12/05 00:06:49;;;;;;;;;;;;;;;6.29;63.10;101455.06;5047168;28;19970;-52
2022/12/05 00:09:14;;;;;;;;;;;;;;;6.26;62.06;101452.41;5035208;28;19917;-55
2022/12/05 00:11:40;;;;;;;;;;;;;;;6.31;63.01;101455.09;5047975;28;19924;-53
2022/12/05 00:14:07;;;;;;;;;;;;;;;6.32;63.05;101449.03;5045272;28;19917;-57
2022/12/05 00:16:34;;;;;;;;;;;;;;;6.27;61.88;101450.72;5034638;28;20274;-54
2022/12/05 00:19:00;;;;;;;;;;;;;;;6.32;62.46;101446.41;5046788;28;20019;-52
2022/12/05 00:21:26;;;;;;;;;;;;;;;6.28;61.72;101445.50;5034458;28;19948;-51
2022/12/05 00:23:53;;;;;;;;;;;;;;;6.28;61.77;101440.28;5039383;28;19920;-53
2022/12/05 00:26:18;;;;;;;;;;;;;;;6.23;61.99;101430.66;5054219;28;20015;-51
2022/12/05 00:28:44;;;;;;;;;;;;;;;6.22;62.05;101431.47;5054535;28;19966;-50
2022/12/05 00:31:11;;;;;;;;;;;;;;;6.12;61.92;101431.38;5044933;28;19925;-52
2022/12/05 00:33:36;;;;;;;;;;;;;;;6.14;61.66;101424.44;5036176;28;19925;-51
2022/12/05 00:36:03;;;;;;;;;;;;;;;6.20;64.93;101415.81;5045428;28;19928;-51
2022/12/05 00:38:28;;;;;;;;;;;;;;;6.25;64.19;101423.69;5034101;28;20036;-51
2022/12/05 00:40:53;;;;;;;;;;;;;;;6.25;62.00;101419.34;5046545;28;20004;-51
2022/12/05 00:43:19;;;;;;;;;;;;;;;6.38;61.83;101421.28;5054428;28;20445;-51
2022/12/05 00:45:44;;;;;;;;;;;;;;;6.35;62.16;101416.00;5052068;28;20380;-51
2022/12/05 00:48:09;;;;;;;;;;;;;;;6.26;62.56;101415.00;5054078;28;19968;-53
2022/12/05 00:50:34;;;;;;;;;;;;;;;6.46;63.09;101421.34;5041737;28;19925;-51
2022/12/05 00:53:00;;;;;;;;;;;;;;;6.46;62.88;101429.16;5041902;28;20396;-51
2022/12/05 00:55:25;;;;;;;;;;;;;;;6.52;60.93;101434.47;5040744;28;19933;-50
2022/12/05 00:57:50;;;;;;;;;;;;;;;6.35;61.40;101438.63;5035609;28;19940;-51
2022/12/05 01:00:16;;;;;;;;;;;;;;;6.39;61.46;101429.97;5037218;28;19932;-52
2022/12/05 01:02:41;;;;;;;;;;;;;;;6.41;62.09;101431.72;5036078;28;19920;-51
2022/12/05 01:05:06;;;;;;;;;;;;;;;6.44;61.24;101435.25;5040467;28;20296;-52
2022/12/05 01:07:31;;;;;;;;;;;;;;;6.35;61.10;101438.63;5048519;28;19925;-52
2022/12/05 01:09:57;;;;;;;;;;;;;;;6.25;61.50;101439.34;5050176;28;19963;-53
2022/12/05 01:12:22;;;;;;;;;;;;;;;6.02;62.85;101442.53;5042486;28;19929;-51
2022/12/05 01:14:47;;;;;;;;;;;;;;;6.07;62.21;101435.66;5050074;28;19961;-51
2022/12/05 01:17:12;;;;;;;;;;;;;;;5.79;62.93;101436.09;5050378;28;19925;-52
2022/12/05 01:19:38;;;;;;;;;;;;;;;5.93;62.64;101438.06;5041903;28;20293;-54
2022/12/05 01:22:03;;;;;;;;;;;;;;;5.90;62.80;101432.78;5052013;28;19925;-53
2022/12/05 01:24:28;;;;;;;;;;;;;;;6.03;62.60;101428.66;5039088;28;19978;-50
2022/12/05 01:26:54;;;;;;;;;;;;;;;5.99;62.25;101437.28;5045074;28;19928;-49
2022/12/05 01:29:20;;;;;;;;;;;;;;;5.93;62.54;101435.44;5050235;28;19921;-53
2022/12/05 01:31:46;;;;;;;;;;;;;;;5.86;63.10;101430.09;5047227;28;19925;-49
2022/12/05 01:34:14;;;;;;;;;;;;;;;5.93;62.72;101432.84;5048860;28;20335;-53
2022/12/05 01:36:39;;;;;;;;;;;;;;;5.87;62.54;101424.03;5048383;28;20423;-48
2022/12/05 01:39:05;;;;;;;;;;;;;;;5.98;62.58;101425.06;5048382;28;19920;-50
2022/12/05 01:41:32;;;;;;;;;;;;;;;5.89;62.47;101422.31;5041447;28;20035;-51
2022/12/05 01:44:23;;;;;;;;;;;;;;;5.81;62.91;101421.31;5054992;28;20337;-50
2022/12/05 01:46:49;;;;;;;;;;;;;;;5.91;62.69;101420.63;5048745;28;19921;-53
2022/12/05 01:49:16;;;;;;;;;;;;;;;6.02;62.58;101421.66;5042292;28;19920;-53
2022/12/05 01:51:47;;;;;;;;;;;;;;;6.01;62.48;101408.59;5035517;28;19925;-51
2022/12/05 01:54:14;;;;;;;;;;;;;;;5.98;64.29;101411.16;5038994;28;20396;-55
2022/12/05 01:56:41;;;;;;;;;;;;;;;6.06;64.08;101412.13;5037394;28;19929;-50
2022/12/05 01:59:08;;;;;;;;;;;;;;;6.13;62.25;101409.63;5035419;28;19921;-50
2022/12/05 02:01:33;;;;;;;;;;;;;;;6.15;62.13;101407.06;5036154;28;19921;-55
2022/12/05 02:03:59;;;;;;;;;;;;;;;5.98;62.51;101412.03;5035329;28;20297;-50
2022/12/05 02:06:25;;;;;;;;;;;;;;;6.12;62.25;101412.22;5035211;28;19928;-53
2022/12/05 02:08:51;;;;;;;;;;;;;;;6.14;62.08;101410.50;5041897;28;19929;-52
2022/12/05 02:11:17;;;;;;;;;;;;;;;6.02;62.57;101416.44;5048524;28;19920;-51
2022/12/05 02:14:06;;;;;;;;;;;;;;;6.05;62.28;101413.00;5044714;28;19955;-50
2022/12/05 02:16:31;;;;;;;;;;;;;;;6.00;62.39;101406.84;5038406;28;20020;-51
2022/12/05 02:19:17;;;;;;;;;;;;;;;5.92;62.95;101414.56;5035527;28;20009;-48
2022/12/05 02:21:42;;;;;;;;;;;;;;;5.98;62.47;101405.94;5032910;28;20389;-51
2022/12/05 02:24:35;;;;;;;;;;;;;;;6.03;63.17;101413.00;5035286;28;19921;-50
2022/12/05 02:27:21;;;;;;;;;;;;;;;6.06;63.24;101407.78;5038629;28;20385;-52
2022/12/05 02:29:59;;;;;;;;;;;;;;;6.08;62.75;101408.69;5035674;28;19928;-48
2022/12/05 02:32:27;;;;;;;;;;;;;;;6.08;63.45;101402.59;5038624;28;19921;-52
2022/12/05 02:34:57;;;;;;;;;;;;;;;6.06;62.67;101402.56;5039777;28;19935;-50
2022/12/05 02:37:34;;;;;;;;;;;;;;;5.97;62.92;101412.91;5048591;28;20007;-54
2022/12/05 02:40:03;;;;;;;;;;;;;;;6.16;62.17;101408.81;5047124;28;19925;-49
2022/12/05 02:42:34;;;;;;;;;;;;;;;6.21;63.37;101401.91;5039203;28;20343;-53
2022/12/05 02:45:01;;;;;;;;;;;;;;;6.28;62.34;101400.25;5046821;28;19921;-49
2022/12/05 02:47:28;;;;;;;;;;;;;;;6.34;61.05;101409.03;5049612;28;19920;-50
2022/12/05 02:49:54;;;;;;;;;;;;;;;6.22;61.49;101408.00;5038158;28;20011;-50
2022/12/05 02:52:21;;;;;;;;;;;;;;;6.33;60.80;101403.78;5041309;28;19983;-51
2022/12/05 02:54:48;;;;;;;;;;;;;;;6.25;60.75;101397.59;5042764;28;19960;-49
2022/12/05 02:57:14;;;;;;;;;;;;;;;6.20;60.94;101394.06;5038376;28;19928;-51
2022/12/05 02:59:39;;;;;;;;;;;;;;;6.09;61.96;101396.53;5049764;28;19929;-50
2022/12/05 03:02:04;;;;;;;;;;;;;;;5.96;61.99;101399.84;5043728;28;19925;-52
2022/12/05 03:04:30;;;;;;;;;;;;;;;6.00;62.22;101402.50;5051787;28;19921;-50
2022/12/05 03:06:56;;;;;;;;;;;;;;;6.04;61.81;101401.69;5053834;28;19921;-49
2022/12/05 03:09:29;;;;;;;;;;;;;;;5.94;63.66;101397.19;5044051;28;20004;-50
2022/12/05 03:12:00;;;;;;;;;;;;;;;5.90;62.34;101400.59;5047045;28;19921;-52
2022/12/05 03:14:27;;;;;;;;;;;;;;;5.97;61.93;101391.16;5038134;28;19917;-50
2022/12/05 03:16:56;;;;;;;;;;;;;;;5.93;62.45;101387.63;5037260;28;19928;-50
2022/12/05 03:19:24;;;;;;;;;;;;;;;5.95;62.14;101383.31;5036486;28;20399;-51
2022/12/05 03:21:57;;;;;;;;;;;;;;;5.95;62.15;101378.09;5051052;28;19925;-49
2022/12/05 03:24:23;;;;;;;;;;;;;;;5.87;64.52;101382.31;5051692;28;19968;-49
2022/12/05 03:27:01;;;;;;;;;;;;;;;5.90;62.11;101375.41;5049851;28;20384;-51
2022/12/05 03:29:48;;;;;;;;;;;;;;;6.02;62.80;101373.81;5037560;28;19928;-49
2022/12/05 03:32:36;;;;;;;;;;;;;;;6.02;62.58;101372.06;5043554;28;19940;-52
2022/12/05 03:35:12;;;;;;;;;;;;;;;5.96;62.30;101365.94;5037409;28;19921;-51
2022/12/05 03:37:43;;;;;;;;;;;;;;;6.12;61.26;101376.56;5038557;28;19963;-55
2022/12/05 03:40:38;;;;;;;;;;;;;;;6.10;62.77;101373.09;5036244;28;19921;-52
2022/12/05 03:43:09;;;;;;;;;;;;;;;6.22;61.80;101376.66;5018991;28;19921;-51
2022/12/05 03:45:42;;;;;;;;;;;;;;;6.23;60.89;101374.09;5038353;28;20011;-52
2022/12/05 03:48:14;;;;;;;;;;;;;;;6.21;60.77;101361.88;5038233;28;19921;-50
2022/12/05 03:50:41;;;;;;;;;;;;;;;6.14;61.13;101369.66;5041716;28;19928;-50
2022/12/05 03:53:10;;;;;;;;;;;;;;;6.16;61.12;101361.81;5037610;28;20011;-52
2022/12/05 03:55:38;;;;;;;;;;;;;;;6.16;61.19;101361.81;5039579;28;19921;-50
2022/12/05 03:58:09;;;;;;;;;;;;;;;6.18;61.19;101362.72;5036862;28;19956;-51
2022/12/05 04:00:39;;;;;;;;;;;;;;;6.19;61.01;101363.59;5037975;28;19928;-51
2022/12/05 04:03:07;;;;;;;;;;;;;;;6.08;61.73;101363.47;5037222;28;19933;-51
2022/12/05 04:05:42;;;;;;;;;;;;;;;6.10;61.37;101362.66;5043593;28;20329;-51
2022/12/05 04:08:14;;;;;;;;;;;;;;;5.92;61.49;101358.06;5036855;28;20444;-49
2022/12/05 04:10:47;;;;;;;;;;;;;;;6.05;62.47;101359.06;5037896;28;19921;-52
2022/12/05 04:13:18;;;;;;;;;;;;;;;6.09;61.38;101355.66;5036307;28;19928;-51
2022/12/05 04:18:43;;;;;;;;;;;;;;;5.92;61.63;101351.97;5044162;28;19948;-51
2022/12/05 04:26:42;;;;;;;;;;;;;;;6.25;61.47;101353.22;5037743;28;19979;-53
2022/12/05 04:29:12;;;;;;;;;;;;;;;6.07;61.44;101346.06;5036591;28;19921;-52
2022/12/05 04:31:41;;;;;;;;;;;;;;;6.10;61.94;101347.00;5037443;28;20395;-49
2022/12/05 04:34:09;;;;;;;;;;;;;;;6.12;61.43;101347.88;5036257;28;19925;-50
2022/12/05 04:36:41;;;;;;;;;;;;;;;6.05;62.95;101348.63;5036887;28;19975;-51
2022/12/05 04:39:19;;;;;;;;;;;;;;;6.11;61.85;101351.34;5039021;28;19921;-51
2022/12/05 04:41:47;;;;;;;;;;;;;;;6.21;60.96;101351.44;5037253;28;19941;-51
2022/12/05 04:44:15;;;;;;;;;;;;;;;6.25;60.75;101351.47;5034971;28;19924;-50
2022/12/05 04:46:42;;;;;;;;;;;;;;;6.29;61.07;101355.88;5036859;28;19933;-53
2022/12/05 04:49:09;;;;;;;;;;;;;;;6.27;61.17;101356.75;5037046;28;19920;-51
2022/12/05 04:51:36;;;;;;;;;;;;;;;6.31;61.22;101356.78;5036945;28;19932;-50
2022/12/05 04:54:19;;;;;;;;;;;;;;;6.20;62.20;101347.09;5037241;28;19921;-49
2022/12/05 04:56:45;;;;;;;;;;;;;;;5.90;61.64;101351.03;5037622;28;20365;-50
2022/12/05 04:59:11;;;;;;;;;;;;;;;6.12;61.96;101344.38;5035904;28;19961;-49
2022/12/05 05:01:38;;;;;;;;;;;;;;;6.35;63.68;101347.25;5036367;28;19932;-55
2022/12/05 05:04:08;;;;;;;;;;;;;;;6.37;60.77;101342.91;5036259;28;19928;-49
2022/12/05 05:06:38;;;;;;;;;;;;;;;6.31;61.22;101340.25;5036920;28;19975;-51
2022/12/05 05:09:03;;;;;;;;;;;;;;;6.29;61.53;101341.97;5049212;28;19921;-51
2022/12/05 05:11:31;;;;;;;;;;;;;;;6.16;60.91;101346.16;5040367;28;19925;-49
2022/12/05 05:13:56;;;;;;;;;;;;;;;6.02;61.05;101345.13;5035972;28;19983;-52
2022/12/05 05:16:42;;;;;;;;;;;;;;;6.03;61.43;101345.16;5035680;28;20384;-55
2022/12/05 05:19:09;;;;;;;;;;;;;;;6.19;60.70;101337.50;5044671;28;20048;-52
2022/12/05 05:21:35;;;;;;;;;;;;;;;6.08;61.13;101340.84;5046878;28;20042;-55
2022/12/05 05:24:02;;;;;;;;;;;;;;;6.48;60.26;101346.53;5039120;28;20360;-52
2022/12/05 05:26:28;;;;;;;;;;;;;;;6.38;60.16;101347.28;5035978;28;19976;-50
2022/12/05 05:28:53;;;;;;;;;;;;;;;6.41;59.95;101353.41;5035117;28;19932;-53
2022/12/05 05:31:19;;;;;;;;;;;;;;;6.37;60.25;101358.59;5035959;28;19928;-51
2022/12/05 05:33:48;;;;;;;;;;;;;;;6.70;59.26;101358.03;5036583;28;19932;-50
2022/12/05 05:36:14;;;;;;;;;;;;;;;6.58;59.54;101357.94;5048542;28;19961;-51
2022/12/05 05:38:44;;;;;;;;;;;;;;;6.38;62.03;101363.84;5042445;28;19968;-53
2022/12/05 05:41:14;;;;;;;;;;;;;;;6.28;60.51;101354.13;5047731;28;20269;-52
2022/12/05 05:43:39;;;;;;;;;;;;;;;7.33;58.63;101348.13;5031581;28;19953;-53
2022/12/05 05:46:05;;;;;;;;;;;;;;;6.56;59.65;101354.44;5038909;28;20357;-51
2022/12/05 05:48:30;;;;;;;;;;;;;;;6.31;60.64;101361.13;5055275;28;19931;-54
2022/12/05 05:50:57;;;;;;;;;;;;;;;7.40;58.19;101344.69;5045318;28;19936;-51
2022/12/05 05:53:22;;;;;;;;;;;;;;;6.65;59.50;101351.91;5046217;28;19976;-54
2022/12/05 05:55:48;;;;;;;;;;;;;;;7.61;57.52;101351.78;5043916;28;19967;-52
2022/12/05 05:58:13;;;;;;;;;;;;;;;8.01;57.41;101349.38;5037765;28;19917;-52
2022/12/05 06:00:38;;;;;;;;;;;;;;;6.79;58.84;101344.22;5050985;28;20321;-54
2022/12/05 06:03:04;;;;;;;;;;;;;;;6.33;60.11;101348.97;5046851;28;20403;-55
2022/12/05 06:05:29;;;;;;;;;;;;;;;6.05;61.10;101350.38;5038751;28;19929;-52
2022/12/05 06:07:54;;;;;;;;;;;;;;;6.06;61.47;101352.13;5041641;28;19925;-53
2022/12/05 06:10:19;;;;;;;;;;;;;;;6.11;61.10;101347.84;5045042;28;19932;-52
2022/12/05 06:12:44;;;;;;;;;;;;;;;6.06;62.55;101349.50;5040360;28;19925;-51
2022/12/05 06:15:10;;;;;;;;;;;;;;;7.34;58.36;101355.09;5049483;28;20335;-58
2022/12/05 06:17:36;;;;;;;;;;;;;;;7.26;59.21;101349.84;5042180;28;19936;-54
2022/12/05 06:20:01;;;;;;;;;;;;;;;6.52;60.78;101355.28;5038517;28;20376;-53
2022/12/05 06:22:26;;;;;;;;;;;;;;;7.83;57.32;101347.56;5044582;28;19925;-51
2022/12/05 06:24:52;;;;;;;;;;;;;;;8.21;55.60;101359.94;5046712;28;20376;-52
2022/12/05 06:27:17;;;;;;;;;;;;;;;8.00;56.38;101369.44;5046755;28;19925;-54
2022/12/05 06:29:42;;;;;;;;;;;;;;;7.01;61.34;101361.81;5041537;28;20335;-52
2022/12/05 06:32:08;;;;;;;;;;;;;;;6.52;59.42;101356.13;5051278;28;19920;-54
2022/12/05 06:34:34;;;;;;;;;;;;;;;6.31;60.24;101367.22;5055605;28;19921;-53
2022/12/05 06:36:59;;;;;;;;;;;;;;;6.13;60.79;101360.03;5036557;28;19917;-50
2022/12/05 06:39:24;;;;;;;;;;;;;;;6.10;65.41;101366.97;5050925;28;19946;-54
2022/12/05 06:41:50;;;;;;;;;;;;;;;6.23;61.23;101365.41;5039979;28;20019;-54
2022/12/05 06:44:15;;;;;;;;;;;;;;;6.20;61.06;101370.56;5052956;28;19925;-53
2022/12/05 06:46:40;;;;;;;;;;;;;;;6.16;61.26;101362.69;5039071;28;19921;-51
2022/12/05 06:49:05;;;;;;;;;;;;;;;6.09;61.92;101360.88;5036041;28;19965;-53
2022/12/05 06:51:31;;;;;;;;;;;;;;;5.99;61.24;101363.38;5037357;28;19926;-52
2022/12/05 06:53:56;;;;;;;;;;;;;;;6.08;61.41;101374.78;5040315;28;20441;-51
2022/12/05 06:56:21;;;;;;;;;;;;;;;6.04;61.32;101370.38;5037176;28;19924;-51
2022/12/05 06:58:48;;;;;;;;;;;;;;;5.98;61.87;101370.28;5038444;28;19928;-56
2022/12/05 07:04:02;;;;;;;;;;;;;;;6.00;61.36;101371.19;5041851;28;19928;-54
2022/12/05 07:06:27;;;;;;;;;;;;;;;6.00;61.73;101371.19;5039881;28;19920;-55
2022/12/05 07:08:53;;;;;;;;;;;;;;;6.09;61.18;101373.91;5045527;28;19921;-54
2022/12/05 07:11:18;;;;;;;;;;;;;;;6.14;61.09;101377.47;5046081;28;20360;-54
2022/12/05 07:13:43;;;;;;;;;;;;;;;6.17;61.77;101367.06;5047596;28;19920;-54
2022/12/05 07:16:08;;;;;;;;;;;;;;;6.30;61.62;101367.19;5049038;28;20075;-54
2022/12/05 07:18:34;;;;;;;;;;;;;;;6.39;60.26;101362.09;5054856;28;19975;-53
2022/12/05 07:21:03;;;;;;;;;;;;;;;6.20;60.48;101357.53;5048761;28;20273;-52
2022/12/05 07:23:29;;;;;;;;;;;;;;;6.14;61.20;101360.91;5037601;28;19925;-53
2022/12/05 07:25:56;;;;;;;;;;;;;;;6.16;60.66;101356.59;5043953;28;20050;-55
2022/12/05 07:28:22;;;;;;;;;;;;;;;6.30;60.82;101357.63;5050939;28;19925;-54
2022/12/05 07:30:47;;;;;;;;;;;;;;;6.30;61.21;101360.22;5043296;28;19932;-54
2022/12/05 07:33:12;;;;;;;;;;;;;;;6.34;62.29;101358.53;5047272;28;19921;-53
2022/12/05 07:35:38;;;;;;;;;;;;;;;6.43;61.26;101350.84;5037710;28;20380;-50
2022/12/05 07:38:03;;;;;;;;;;;;;;;6.60;64.88;101362.31;5035895;28;19929;-51
2022/12/05 07:40:28;;;;;;;;;;;;;;;6.61;61.42;101363.19;5038278;28;19976;-54
2022/12/05 07:42:54;;;;;;;;;;;;;;;6.74;61.13;101356.34;5042314;28;19939;-54
2022/12/05 07:45:19;;;;;;;;;;;;;;;6.83;59.39;101359.06;5043207;28;19955;-54
2022/12/05 07:47:45;;;;;;;;;;;;;;;6.96;59.13;101353.06;5042523;28;19931;-52
2022/12/05 07:50:10;;;;;;;;;;;;;;;6.68;58.76;101358.91;5037451;28;20000;-55
2022/12/05 07:52:35;;;;;;;;;;;;;;;6.61;58.92;101355.34;5046064;28;19963;-54
2022/12/05 07:55:00;;;;;;;;;;;;;;;6.37;59.96;101351.63;5050695;28;19924;-55
2022/12/05 07:57:28;;;;;;;;;;;;;;;6.29;59.73;101345.44;5043205;28;19932;-53
2022/12/05 07:59:53;;;;;;;;;;;;;;;6.24;60.87;101354.97;5041827;28;19921;-54
2022/12/05 08:02:19;;;;;;;;;;;;;;;6.08;60.37;101353.03;5040514;28;19925;-54
2022/12/05 08:04:44;;;;;;;;;;;;;;;5.95;60.53;101357.22;5040230;28;20407;-52
2022/12/05 08:07:10;;;;;;;;;;;;;;;6.09;60.71;101350.44;5042377;28;20014;-54
2022/12/05 08:09:35;;;;;;;;;;;;;;;6.15;60.60;101353.13;5039687;28;19932;-53
2022/12/05 08:12:01;;;;;;;;;;;;;;;6.14;60.84;101359.22;5050190;28;19925;-55
2022/12/05 08:14:26;;;;;;;;;;;;;;;6.19;60.72;101359.25;5042040;28;19931;-55
2022/12/05 08:16:51;;;;;;;;;;;;;;;6.27;60.39;101367.19;5049284;28;20304;-54
2022/12/05 08:19:17;;;;;;;;;;;;;;;6.25;61.77;101361.94;5038880;28;19976;-52
2022/12/05 08:21:42;;;;;;;;;;;;;;;6.26;60.55;101366.28;5048664;28;20024;-54
2022/12/05 08:24:07;;;;;;;;;;;;;;;6.16;60.97;101365.31;5050080;28;19947;-56
2022/12/05 08:26:34;;;;;;;;;;;;;;;6.12;61.08;101360.91;5044665;28;19921;-51
2022/12/05 08:29:10;;;;;;;;;;;;;;;6.27;60.61;101369.78;5036362;28;19971;-55
2022/12/05 08:31:39;;;;;;;;;;;;;;;6.33;60.31;101369.84;5049057;28;20015;-53
2022/12/05 08:34:04;;;;;;;;;;;;;;;6.12;60.28;101353.09;5051041;28;19928;-53
2022/12/05 08:36:30;;;;;;;;;;;;;;;6.27;60.96;101362.84;5049032;28;19939;-54
2022/12/05 08:38:59;;;;;;;;;;;;;;;6.29;59.90;101358.50;5049641;28;20020;-51
2022/12/05 08:41:28;;;;;;;;;;;;;;;6.41;59.93;101362.97;5049671;28;19940;-55
2022/12/05 08:44:08;;;;;;;;;;;;;;;6.38;59.80;101353.41;5050188;28;20442;-52
2022/12/05 08:46:35;;;;;;;;;;;;;;;6.32;59.62;101355.06;5048869;28;19966;-52
2022/12/05 08:49:01;;;;;;;;;;;;;;;6.42;59.94;101349.06;5050578;28;19944;-51
2022/12/05 08:51:26;;;;;;;;;;;;;;;6.35;60.42;101358.56;5049388;28;19929;-55
2022/12/05 08:53:51;;;;;;;;;;;;;;;6.39;59.72;101354.28;5049655;28;19986;-55
2022/12/05 08:56:17;;;;;;;;;;;;;;;6.39;59.72;101355.13;5050395;28;19931;-52
2022/12/05 08:58:42;;;;;;;;;;;;;;;6.24;59.89;101348.88;5048297;28;19967;-51
2022/12/05 09:01:09;;;;;;;;;;;;;;;6.19;60.32;101355.78;5050506;28;19925;-52
2022/12/05 09:03:35;;;;;;;;;;;;;;;6.26;60.24;101352.34;5047907;28;19949;-52
2022/12/05 09:06:07;;;;;;;;;;;;;;;6.29;60.28;101350.66;5050116;28;19928;-54
2022/12/05 09:08:32;;;;;;;;;;;;;;;6.30;59.88;101354.16;5037423;28;19921;-52
2022/12/05 09:10:58;;;;;;;;;;;;;;;6.20;60.63;101353.19;5052208;28;20395;-54
2022/12/05 09:13:23;;;;;;;;;;;;;;;6.31;60.28;101351.56;5048574;28;19996;-56
2022/12/05 09:15:48;;;;;;;;;;;;;;;6.29;60.06;101357.63;5034060;28;19928;-53
2022/12/05 09:18:14;;;;;;;;;;;;;;;6.24;59.92;101349.75;5033886;28;19928;-53
2022/12/05 09:20:40;;;;;;;;;;;;;;;6.32;59.96;101339.38;5047652;28;19932;-51
2022/12/05 09:23:05;;;;;;;;;;;;;;;6.31;59.95;101342.88;5034451;28;19921;-56
2022/12/05 09:25:30;;;;;;;;;;;;;;;6.16;60.11;101331.38;5038621;28;20395;-55
2022/12/05 09:27:56;;;;;;;;;;;;;;;6.31;59.93;101329.81;5045425;28;19931;-55
2022/12/05 09:30:21;;;;;;;;;;;;;;;6.08;60.35;101329.56;5051612;28;20015;-54
2022/12/05 09:32:46;;;;;;;;;;;;;;;6.16;59.88;101327.91;5049020;28;20019;-55
2022/12/05 09:35:12;;;;;;;;;;;;;;;6.12;60.09;101327.00;5041122;28;19921;-52
2022/12/05 09:37:37;;;;;;;;;;;;;;;6.07;61.99;101325.19;5077558;28;19920;-53
2022/12/05 09:40:02;;;;;;;;;;;;;;;6.04;60.19;101318.19;5077828;28;19986;-54
2022/12/05 09:42:33;;;;;;;;;;;;;;;5.99;61.44;101313.78;5077329;28;19920;-51
2022/12/05 09:45:04;;;;;;;;;;;;;;;5.95;60.68;101315.50;5077529;28;19921;-52
2022/12/05 09:47:43;;;;;;;;;;;;;;;5.89;60.89;101308.41;5077604;28;20404;-51
2022/12/05 09:50:12;;;;;;;;;;;;;;;5.83;60.79;101304.88;5076300;28;19917;-56
2022/12/05 09:52:40;;;;;;;;;;;;;;;5.85;61.35;101303.16;5053590;28;19970;-53
2022/12/05 09:55:10;;;;;;;;;;;;;;;5.97;60.75;101302.44;5057754;28;19920;-52
2022/12/05 09:57:38;;;;;;;;;;;;;;;5.80;62.49;101299.63;5047219;28;20313;-54
2022/12/05 10:00:05;;;;;;;;;;;;;;;5.88;61.02;101303.19;5037297;28;19972;-55
2022/12/05 10:02:51;;;;;;;;;;;;;;;6.06;60.93;101303.41;5038081;28;20365;-52
2022/12/05 10:05:26;;;;;;;;;;;;;;;6.17;60.77;101300.94;5036752;28;19917;-50
2022/12/05 10:08:05;;;;;;;;;;;;;;;6.22;60.53;101299.25;5037386;28;20016;-54
2022/12/05 10:10:43;;;;;;;;;;;;;;;6.25;59.72;101299.28;5037251;28;19924;-55
2022/12/05 10:13:20;;;;;;;;;;;;;;;6.31;59.57;101303.72;5037365;28;19970;-53
2022/12/05 10:15:59;;;;;;;;;;;;;;;6.20;59.84;101295.75;5037086;28;20313;-51
2022/12/05 10:18:24;;;;;;;;;;;;;;;6.20;59.77;101297.50;5036966;28;20385;-54
2022/12/05 10:20:58;;;;;;;;;;;;;;;6.24;59.96;101288.84;5036920;28;19924;-53
2022/12/05 10:24:02;;;;;;;;;;;;;;;6.25;59.59;101287.97;5036869;28;20042;-51
2022/12/05 10:26:42;;;;;;;;;;;;;;;6.26;60.90;101285.38;5003632;28;19922;-54
2022/12/05 10:29:14;;;;;;;;;;;;;;;6.29;59.43;101282.81;4995608;28;19965;-54
2022/12/05 10:31:40;;;;;;;;;;;;;;;6.26;59.59;101279.28;5021821;28;19928;-53
2022/12/05 10:34:12;;;;;;;;;;;;;;;6.26;62.09;101276.66;5053672;28;19924;-51
2022/12/05 10:36:37;;;;;;;;;;;;;;;6.34;60.02;101259.34;5072332;28;19944;-55
2022/12/05 10:39:03;;;;;;;;;;;;;;;6.17;59.31;101278.31;5056792;28;20374;-53
2022/12/05 10:41:28;;;;;;;;;;;;;;;6.50;60.16;101274.28;5055233;28;19956;-52
2022/12/05 10:43:54;;;;;;;;;;;;;;;6.54;59.12;101263.03;5056676;28;19921;-54
2022/12/05 10:46:20;;;;;;;;;;;;;;;6.66;63.68;101260.53;5055436;28;19917;-54
2022/12/05 10:48:45;;;;;;;;;;;;;;;6.84;59.01;101258.94;5056556;28;19916;-53
2022/12/05 10:51:19;;;;;;;;;;;;;;;6.73;58.23;101257.97;5056305;28;19924;-55
2022/12/05 10:53:48;;;;;;;;;;;;;;;6.73;58.16;101252.75;5056190;28;19932;-55
2022/12/05 10:56:32;;;;;;;;;;;;;;;6.43;58.79;101245.53;5056279;28;19925;-51
2022/12/05 10:58:57;;;;;;;;;;;;;;;6.31;59.19;101246.28;5056247;28;19939;-54
2022/12/05 11:01:24;;;;;;;;;;;;;;;6.37;59.18;101243.72;5055961;28;20377;-51
2022/12/05 11:03:55;;;;;;;;;;;;;;;6.33;59.48;101239.34;5055936;28;19921;-49
2022/12/05 11:06:25;;;;;;;;;;;;;;;6.41;59.24;101243.75;5056024;28;20273;-52
2022/12/05 11:08:53;;;;;;;;;;;;;;;6.43;59.25;101246.41;5056279;28;20008;-49
2022/12/05 11:11:20;;;;;;;;;;;;;;;6.48;59.19;101246.44;5056028;28;20344;-50
2022/12/05 11:13:56;;;;;;;;;;;;;;;6.35;59.19;101245.47;5056629;28;19917;-56
2022/12/05 11:16:23;;;;;;;;;;;;;;;6.34;59.37;101251.50;5054524;28;19921;-54
2022/12/05 11:18:48;;;;;;;;;;;;;;;6.40;59.26;101241.16;5055780;28;19917;-52
2022/12/05 11:21:15;;;;;;;;;;;;;;;6.42;59.36;101234.19;5055937;28;19966;-54
2022/12/05 11:23:40;;;;;;;;;;;;;;;6.39;59.32;101236.78;5055837;28;19921;-52
2022/12/05 11:26:15;;;;;;;;;;;;;;;6.28;59.31;101235.81;5041440;28;19983;-55
2022/12/05 11:28:41;;;;;;;;;;;;;;;6.31;59.50;101234.13;5035858;28;19921;-51
2022/12/05 11:31:15;;;;;;;;;;;;;;;6.23;60.44;101221.84;5035736;28;20258;-51
2022/12/05 11:33:40;;;;;;;;;;;;;;;6.27;59.64;101227.13;5035711;28;19925;-55
2022/12/05 11:36:22;;;;;;;;;;;;;;;6.24;60.04;101224.47;5038477;28;19921;-57
2022/12/05 11:38:47;;;;;;;;;;;;;;;6.32;59.97;101220.19;5040635;28;19960;-52
2022/12/05 11:41:22;;;;;;;;;;;;;;;6.30;60.39;101216.69;5039915;28;19967;-55
2022/12/05 11:43:59;;;;;;;;;;;;;;;6.22;59.82;101207.03;5049770;28;19924;-51
2022/12/05 11:46:37;;;;;;;;;;;;;;;6.22;59.91;101202.69;5050137;28;19929;-51
2022/12/05 11:49:08;;;;;;;;;;;;;;;6.20;60.11;101201.81;5040399;28;19928;-50
2022/12/05 11:51:53;;;;;;;;;;;;;;;6.22;60.06;101202.69;5049123;28;20000;-52
2022/12/05 11:54:19;;;;;;;;;;;;;;;6.20;60.40;101196.59;5047915;28;20343;-53
2022/12/05 11:56:50;;;;;;;;;;;;;;;6.17;61.14;101202.66;5037026;28;19928;-54
2022/12/05 11:59:19;;;;;;;;;;;;;;;6.30;59.92;101197.53;5037754;28;19935;-51
2022/12/05 12:01:52;;;;;;;;;;;;;;;6.27;59.86;101194.94;5036188;28;21367;-50
2022/12/05 12:04:44;;;;;;;;;;;;;;;6.30;60.67;101187.97;5037915;28;20387;-54
2022/12/05 12:07:12;;;;;;;;;;;;;;;6.37;60.17;101194.13;5022696;28;19996;-54
2022/12/05 12:09:47;;;;;;;;;;;;;;;6.42;59.70;101197.63;5040986;28;19921;-51
2022/12/05 12:12:22;;;;;;;;;;;;;;;6.35;59.58;101195.88;5050558;28;19957;-54
2022/12/05 12:14:50;;;;;;;;;;;;;;;6.17;60.11;101181.78;5037002;28;20331;-52
2022/12/05 12:17:34;;;;;;;;;;;;;;;6.26;60.64;101177.50;5037445;28;19925;-56
2022/12/05 12:20:11;;;;;;;;;;;;;;;6.32;60.32;101169.72;5036777;28;20381;-54
2022/12/05 12:22:44;;;;;;;;;;;;;;;6.39;60.02;101167.19;5049638;28;19921;-53
2022/12/05 12:25:27;;;;;;;;;;;;;;;6.25;59.88;101162.72;5050907;28;19921;-54
2022/12/05 12:27:53;;;;;;;;;;;;;;;6.26;60.01;101160.09;5036617;28;19927;-53
2022/12/05 12:30:34;;;;;;;;;;;;;;;6.04;60.24;101153.81;5037467;28;19925;-55
2022/12/05 12:33:04;;;;;;;;;;;;;;;6.14;60.45;101157.38;5036499;28;19921;-55
2022/12/05 12:35:31;;;;;;;;;;;;;;;6.13;60.86;101156.50;5037358;28;19998;-55
2022/12/05 12:37:56;;;;;;;;;;;;;;;6.31;60.46;101162.78;5036463;28;20377;-53
2022/12/05 12:40:22;;;;;;;;;;;;;;;6.34;60.29;101153.22;5037558;28;19921;-53
2022/12/05 12:43:13;;;;;;;;;;;;;;;6.22;60.06;101155.72;5040932;28;19927;-54
2022/12/05 12:45:38;;;;;;;;;;;;;;;6.30;59.74;101150.56;5049716;28;19917;-54
2022/12/05 12:48:22;;;;;;;;;;;;;;;6.19;59.87;101147.88;5049352;28;19943;-54
2022/12/05 12:50:50;;;;;;;;;;;;;;;6.11;61.07;101153.03;5050538;28;19916;-54
2022/12/05 12:53:22;;;;;;;;;;;;;;;6.23;60.35;101147.03;5048308;28;19982;-54
2022/12/05 12:55:47;;;;;;;;;;;;;;;6.17;60.19;101150.47;5036137;28;19948;-55
2022/12/05 12:58:19;;;;;;;;;;;;;;;6.24;60.90;101147.91;5036196;28;20266;-53
2022/12/05 13:00:53;;;;;;;;;;;;;;;6.31;60.30;101147.97;5036173;28;19976;-51
2022/12/05 13:03:21;;;;;;;;;;;;;;;6.32;60.12;101151.47;5037200;28;19921;-49
2022/12/05 13:05:57;;;;;;;;;;;;;;;6.41;59.78;101141.94;5036217;28;19964;-54
2022/12/05 13:08:25;;;;;;;;;;;;;;;6.38;59.96;101143.66;5036342;28;19921;-51